sensor_id;sensor_type;location;lat;lon;timestamp;P1;durP1;ratioP1;P2;durP2;ratioP2
8159;SDS011;27404;52.398;9.646;2022-08-19T00:01:43;9.47;;;6.83;;
8159;SDS011;27404;52.398;9.646;2022-08-19T00:04:11;10.83;;;7.30;;
8159;SDS011;27404;52.398;9.646;2022-08-19T00:06:39;12.53;;;7.10;;
8159;SDS011;27404;52.398;9.646;2022-08-19T00:09:06;11.00;;;6.80;;
8159;SDS011;27404;52.398;9.646;2022-08-19T00:11:34;9.80;;;6.93;;
8159;SDS011;27404;52.398;9.646;2022-08-19T00:14:01;9.17;;;6.60;;
8159;SDS011;27404;52.398;9.646;2022-08-19T00:16:28;10.07;;;7.80;;
8159;SDS011;27404;52.398;9.646;2022-08-19T00:18:54;9.20;;;7.10;;
8159;SDS011;27404;52.398;9.646;2022-08-19T00:21:20;8.50;;;6.63;;
8159;SDS011;27404;52.398;9.646;2022-08-19T00:23:46;10.10;;;6.60;;
8159;SDS011;27404;52.398;9.646;2022-08-19T00:26:12;10.03;;;6.70;;
8159;SDS011;27404;52.398;9.646;2022-08-19T00:28:37;10.43;;;6.43;;
8159;SDS011;27404;52.398;9.646;2022-08-19T00:31:03;11.33;;;6.83;;
8159;SDS011;27404;52.398;9.646;2022-08-19T00:33:30;9.90;;;7.00;;
8159;SDS011;27404;52.398;9.646;2022-08-19T00:35:59;11.70;;;6.73;;
8159;SDS011;27404;52.398;9.646;2022-08-19T00:38:25;11.27;;;6.60;;
8159;SDS011;27404;52.398;9.646;2022-08-19T00:40:51;13.23;;;7.50;;
8159;SDS011;27404;52.398;9.646;2022-08-19T00:43:19;11.63;;;7.60;;
8159;SDS011;27404;52.398;9.646;2022-08-19T00:45:47;10.77;;;7.10;;
8159;SDS011;27404;52.398;9.646;2022-08-19T00:48:15;8.80;;;7.37;;
8159;SDS011;27404;52.398;9.646;2022-08-19T00:50:42;11.33;;;7.60;;
8159;SDS011;27404;52.398;9.646;2022-08-19T00:53:09;10.97;;;7.40;;
8159;SDS011;27404;52.398;9.646;2022-08-19T00:55:37;10.67;;;7.37;;
8159;SDS011;27404;52.398;9.646;2022-08-19T00:58:08;9.03;;;7.00;;
8159;SDS011;27404;52.398;9.646;2022-08-19T01:00:37;13.23;;;8.07;;
8159;SDS011;27404;52.398;9.646;2022-08-19T01:03:06;11.63;;;7.93;;
8159;SDS011;27404;52.398;9.646;2022-08-19T01:05:34;12.27;;;8.23;;
8159;SDS011;27404;52.398;9.646;2022-08-19T01:08:02;12.83;;;7.93;;
8159;SDS011;27404;52.398;9.646;2022-08-19T01:10:31;10.90;;;8.03;;
8159;SDS011;27404;52.398;9.646;2022-08-19T01:13:00;12.40;;;8.57;;
8159;SDS011;27404;52.398;9.646;2022-08-19T01:15:29;13.10;;;7.93;;
8159;SDS011;27404;52.398;9.646;2022-08-19T01:17:58;10.27;;;7.70;;
8159;SDS011;27404;52.398;9.646;2022-08-19T01:20:26;10.70;;;8.30;;
8159;SDS011;27404;52.398;9.646;2022-08-19T01:22:53;12.37;;;8.40;;
8159;SDS011;27404;52.398;9.646;2022-08-19T01:25:22;9.73;;;7.97;;
8159;SDS011;27404;52.398;9.646;2022-08-19T01:27:52;13.30;;;8.30;;
8159;SDS011;27404;52.398;9.646;2022-08-19T01:30:20;9.53;;;8.37;;
8159;SDS011;27404;52.398;9.646;2022-08-19T01:32:51;13.83;;;7.73;;
8159;SDS011;27404;52.398;9.646;2022-08-19T01:35:18;13.77;;;8.37;;
8159;SDS011;27404;52.398;9.646;2022-08-19T01:37:53;11.30;;;7.57;;
8159;SDS011;27404;52.398;9.646;2022-08-19T01:40:25;11.73;;;8.10;;
8159;SDS011;27404;52.398;9.646;2022-08-19T01:42:52;15.97;;;8.80;;
8159;SDS011;27404;52.398;9.646;2022-08-19T01:45:19;9.43;;;7.97;;
8159;SDS011;27404;52.398;9.646;2022-08-19T01:47:46;11.07;;;7.63;;
8159;SDS011;27404;52.398;9.646;2022-08-19T01:50:12;12.60;;;7.70;;
8159;SDS011;27404;52.398;9.646;2022-08-19T01:52:39;13.77;;;9.07;;
8159;SDS011;27404;52.398;9.646;2022-08-19T01:55:07;14.10;;;7.97;;
8159;SDS011;27404;52.398;9.646;2022-08-19T01:57:35;10.13;;;7.67;;
8159;SDS011;27404;52.398;9.646;2022-08-19T02:00:01;14.23;;;7.67;;
8159;SDS011;27404;52.398;9.646;2022-08-19T02:02:30;13.57;;;8.63;;
8159;SDS011;27404;52.398;9.646;2022-08-19T02:04:55;9.63;;;7.33;;
8159;SDS011;27404;52.398;9.646;2022-08-19T02:07:21;8.70;;;7.57;;
8159;SDS011;27404;52.398;9.646;2022-08-19T02:09:47;12.07;;;7.23;;
8159;SDS011;27404;52.398;9.646;2022-08-19T02:12:13;10.70;;;8.00;;
8159;SDS011;27404;52.398;9.646;2022-08-19T02:14:39;11.50;;;8.00;;
8159;SDS011;27404;52.398;9.646;2022-08-19T02:17:05;12.90;;;7.87;;
8159;SDS011;27404;52.398;9.646;2022-08-19T02:19:31;18.00;;;7.23;;
8159;SDS011;27404;52.398;9.646;2022-08-19T02:21:59;12.33;;;8.20;;
8159;SDS011;27404;52.398;9.646;2022-08-19T02:24:26;10.50;;;7.77;;
8159;SDS011;27404;52.398;9.646;2022-08-19T02:26:52;13.97;;;8.73;;
8159;SDS011;27404;52.398;9.646;2022-08-19T02:29:18;15.37;;;7.83;;
8159;SDS011;27404;52.398;9.646;2022-08-19T02:31:43;13.23;;;8.73;;
8159;SDS011;27404;52.398;9.646;2022-08-19T02:34:08;11.30;;;7.77;;
8159;SDS011;27404;52.398;9.646;2022-08-19T02:36:34;13.30;;;8.10;;
8159;SDS011;27404;52.398;9.646;2022-08-19T02:38:59;11.80;;;8.07;;
8159;SDS011;27404;52.398;9.646;2022-08-19T02:41:26;12.10;;;8.67;;
8159;SDS011;27404;52.398;9.646;2022-08-19T02:43:54;14.67;;;7.90;;
8159;SDS011;27404;52.398;9.646;2022-08-19T02:46:23;12.87;;;8.90;;
8159;SDS011;27404;52.398;9.646;2022-08-19T02:48:52;12.23;;;8.07;;
8159;SDS011;27404;52.398;9.646;2022-08-19T02:51:30;14.57;;;8.53;;
8159;SDS011;27404;52.398;9.646;2022-08-19T02:54:04;10.10;;;7.83;;
8159;SDS011;27404;52.398;9.646;2022-08-19T02:56:33;12.40;;;8.43;;
8159;SDS011;27404;52.398;9.646;2022-08-19T02:59:00;11.83;;;8.23;;
8159;SDS011;27404;52.398;9.646;2022-08-19T03:01:27;13.30;;;8.03;;
8159;SDS011;27404;52.398;9.646;2022-08-19T03:03:57;13.93;;;8.47;;
8159;SDS011;27404;52.398;9.646;2022-08-19T03:06:24;14.73;;;8.60;;
8159;SDS011;27404;52.398;9.646;2022-08-19T03:08:50;12.47;;;8.80;;
8159;SDS011;27404;52.398;9.646;2022-08-19T03:11:21;12.37;;;8.63;;
8159;SDS011;27404;52.398;9.646;2022-08-19T03:13:49;12.00;;;8.77;;
8159;SDS011;27404;52.398;9.646;2022-08-19T03:16:15;12.83;;;8.50;;
8159;SDS011;27404;52.398;9.646;2022-08-19T03:18:42;10.23;;;8.70;;
8159;SDS011;27404;52.398;9.646;2022-08-19T03:21:08;11.07;;;8.80;;
8159;SDS011;27404;52.398;9.646;2022-08-19T03:23:33;13.13;;;9.00;;
8159;SDS011;27404;52.398;9.646;2022-08-19T03:26:02;13.37;;;9.20;;
8159;SDS011;27404;52.398;9.646;2022-08-19T03:28:29;12.87;;;8.00;;
8159;SDS011;27404;52.398;9.646;2022-08-19T03:30:59;14.07;;;9.23;;
8159;SDS011;27404;52.398;9.646;2022-08-19T03:33:28;13.57;;;8.87;;
8159;SDS011;27404;52.398;9.646;2022-08-19T03:36:05;16.50;;;9.43;;
8159;SDS011;27404;52.398;9.646;2022-08-19T03:38:32;12.23;;;8.83;;
8159;SDS011;27404;52.398;9.646;2022-08-19T03:40:57;14.23;;;8.00;;
8159;SDS011;27404;52.398;9.646;2022-08-19T03:43:27;11.63;;;9.23;;
8159;SDS011;27404;52.398;9.646;2022-08-19T03:46:03;9.30;;;7.93;;
8159;SDS011;27404;52.398;9.646;2022-08-19T03:48:31;11.97;;;8.23;;
8159;SDS011;27404;52.398;9.646;2022-08-19T03:50:58;12.73;;;7.93;;
8159;SDS011;27404;52.398;9.646;2022-08-19T03:53:25;12.20;;;8.37;;
8159;SDS011;27404;52.398;9.646;2022-08-19T03:55:52;12.17;;;8.40;;
8159;SDS011;27404;52.398;9.646;2022-08-19T03:58:18;10.83;;;8.63;;
8159;SDS011;27404;52.398;9.646;2022-08-19T04:00:44;14.60;;;8.80;;
8159;SDS011;27404;52.398;9.646;2022-08-19T04:03:10;14.37;;;8.63;;
8159;SDS011;27404;52.398;9.646;2022-08-19T04:05:35;16.43;;;9.17;;
8159;SDS011;27404;52.398;9.646;2022-08-19T04:08:02;13.60;;;8.70;;
8159;SDS011;27404;52.398;9.646;2022-08-19T04:10:28;14.90;;;8.40;;
8159;SDS011;27404;52.398;9.646;2022-08-19T04:12:54;18.07;;;9.17;;
8159;SDS011;27404;52.398;9.646;2022-08-19T04:15:19;13.33;;;8.80;;
8159;SDS011;27404;52.398;9.646;2022-08-19T04:17:45;13.07;;;8.87;;
8159;SDS011;27404;52.398;9.646;2022-08-19T04:20:11;11.23;;;8.47;;
8159;SDS011;27404;52.398;9.646;2022-08-19T04:22:36;11.70;;;8.33;;
8159;SDS011;27404;52.398;9.646;2022-08-19T04:25:02;12.00;;;7.87;;
8159;SDS011;27404;52.398;9.646;2022-08-19T04:27:28;15.30;;;8.53;;
8159;SDS011;27404;52.398;9.646;2022-08-19T04:29:54;10.03;;;7.90;;
8159;SDS011;27404;52.398;9.646;2022-08-19T04:32:20;11.63;;;8.40;;
8159;SDS011;27404;52.398;9.646;2022-08-19T04:34:46;12.43;;;7.83;;
8159;SDS011;27404;52.398;9.646;2022-08-19T04:37:11;11.40;;;8.50;;
8159;SDS011;27404;52.398;9.646;2022-08-19T04:39:39;12.93;;;8.80;;
8159;SDS011;27404;52.398;9.646;2022-08-19T04:42:23;11.90;;;8.27;;
8159;SDS011;27404;52.398;9.646;2022-08-19T04:45:05;9.27;;;7.53;;
8159;SDS011;27404;52.398;9.646;2022-08-19T04:47:32;11.17;;;7.40;;
8159;SDS011;27404;52.398;9.646;2022-08-19T04:49:58;11.57;;;7.97;;
8159;SDS011;27404;52.398;9.646;2022-08-19T04:52:24;10.63;;;8.30;;
8159;SDS011;27404;52.398;9.646;2022-08-19T04:54:49;13.63;;;8.20;;
8159;SDS011;27404;52.398;9.646;2022-08-19T04:57:15;10.10;;;7.63;;
8159;SDS011;27404;52.398;9.646;2022-08-19T04:59:40;9.87;;;7.70;;
8159;SDS011;27404;52.398;9.646;2022-08-19T05:02:07;11.77;;;7.13;;
8159;SDS011;27404;52.398;9.646;2022-08-19T05:04:33;16.33;;;8.90;;
8159;SDS011;27404;52.398;9.646;2022-08-19T05:07:00;10.80;;;7.93;;
8159;SDS011;27404;52.398;9.646;2022-08-19T05:09:26;14.80;;;8.53;;
8159;SDS011;27404;52.398;9.646;2022-08-19T05:11:52;14.73;;;9.33;;
8159;SDS011;27404;52.398;9.646;2022-08-19T05:14:18;14.87;;;8.57;;
8159;SDS011;27404;52.398;9.646;2022-08-19T05:16:44;12.30;;;8.10;;
8159;SDS011;27404;52.398;9.646;2022-08-19T05:19:10;14.20;;;8.90;;
8159;SDS011;27404;52.398;9.646;2022-08-19T05:21:54;13.60;;;8.90;;
8159;SDS011;27404;52.398;9.646;2022-08-19T05:24:38;14.10;;;9.37;;
8159;SDS011;27404;52.398;9.646;2022-08-19T05:27:03;17.17;;;10.07;;
8159;SDS011;27404;52.398;9.646;2022-08-19T05:29:30;16.73;;;9.60;;
8159;SDS011;27404;52.398;9.646;2022-08-19T05:31:58;13.67;;;8.90;;
8159;SDS011;27404;52.398;9.646;2022-08-19T05:34:24;12.63;;;9.03;;
8159;SDS011;27404;52.398;9.646;2022-08-19T05:36:52;12.40;;;8.17;;
8159;SDS011;27404;52.398;9.646;2022-08-19T05:39:22;13.83;;;9.57;;
8159;SDS011;27404;52.398;9.646;2022-08-19T05:41:50;15.43;;;9.97;;
8159;SDS011;27404;52.398;9.646;2022-08-19T05:44:19;14.40;;;9.40;;
8159;SDS011;27404;52.398;9.646;2022-08-19T05:46:46;13.10;;;9.43;;
8159;SDS011;27404;52.398;9.646;2022-08-19T05:49:12;13.40;;;9.20;;
8159;SDS011;27404;52.398;9.646;2022-08-19T05:51:40;14.80;;;9.17;;
8159;SDS011;27404;52.398;9.646;2022-08-19T05:54:07;13.50;;;9.47;;
8159;SDS011;27404;52.398;9.646;2022-08-19T05:56:34;16.53;;;9.87;;
8159;SDS011;27404;52.398;9.646;2022-08-19T05:59:03;15.33;;;10.60;;
8159;SDS011;27404;52.398;9.646;2022-08-19T06:01:36;15.90;;;11.17;;
8159;SDS011;27404;52.398;9.646;2022-08-19T06:04:06;16.40;;;11.20;;
8159;SDS011;27404;52.398;9.646;2022-08-19T06:06:32;15.27;;;11.53;;
8159;SDS011;27404;52.398;9.646;2022-08-19T06:09:00;16.73;;;11.23;;
8159;SDS011;27404;52.398;9.646;2022-08-19T06:11:46;15.20;;;10.43;;
8159;SDS011;27404;52.398;9.646;2022-08-19T06:14:19;16.87;;;11.43;;
8159;SDS011;27404;52.398;9.646;2022-08-19T06:16:49;15.13;;;10.00;;
8159;SDS011;27404;52.398;9.646;2022-08-19T06:19:17;14.50;;;11.43;;
8159;SDS011;27404;52.398;9.646;2022-08-19T06:21:45;18.23;;;11.87;;
8159;SDS011;27404;52.398;9.646;2022-08-19T06:24:13;15.60;;;11.07;;
8159;SDS011;27404;52.398;9.646;2022-08-19T06:26:42;17.50;;;11.13;;
8159;SDS011;27404;52.398;9.646;2022-08-19T06:29:10;17.27;;;10.93;;
8159;SDS011;27404;52.398;9.646;2022-08-19T06:31:36;14.73;;;10.70;;
8159;SDS011;27404;52.398;9.646;2022-08-19T06:34:05;16.60;;;10.87;;
8159;SDS011;27404;52.398;9.646;2022-08-19T06:36:35;14.53;;;10.07;;
8159;SDS011;27404;52.398;9.646;2022-08-19T06:39:04;18.80;;;11.30;;
8159;SDS011;27404;52.398;9.646;2022-08-19T06:41:34;16.20;;;10.20;;
8159;SDS011;27404;52.398;9.646;2022-08-19T06:44:03;18.67;;;12.30;;
8159;SDS011;27404;52.398;9.646;2022-08-19T06:46:29;17.80;;;12.50;;
8159;SDS011;27404;52.398;9.646;2022-08-19T06:48:55;20.00;;;12.27;;
8159;SDS011;27404;52.398;9.646;2022-08-19T06:51:22;19.67;;;12.83;;
8159;SDS011;27404;52.398;9.646;2022-08-19T06:53:49;18.87;;;12.43;;
8159;SDS011;27404;52.398;9.646;2022-08-19T06:56:16;19.67;;;13.13;;
8159;SDS011;27404;52.398;9.646;2022-08-19T06:58:46;24.33;;;14.87;;
8159;SDS011;27404;52.398;9.646;2022-08-19T07:01:12;21.67;;;14.00;;
8159;SDS011;27404;52.398;9.646;2022-08-19T07:03:38;17.77;;;13.33;;
8159;SDS011;27404;52.398;9.646;2022-08-19T07:06:05;22.30;;;14.33;;
8159;SDS011;27404;52.398;9.646;2022-08-19T07:08:33;21.97;;;14.03;;
8159;SDS011;27404;52.398;9.646;2022-08-19T07:11:00;20.30;;;12.97;;
8159;SDS011;27404;52.398;9.646;2022-08-19T07:13:25;21.40;;;13.43;;
8159;SDS011;27404;52.398;9.646;2022-08-19T07:15:51;19.43;;;13.63;;
8159;SDS011;27404;52.398;9.646;2022-08-19T07:18:18;20.03;;;12.43;;
8159;SDS011;27404;52.398;9.646;2022-08-19T07:20:44;21.80;;;12.40;;
8159;SDS011;27404;52.398;9.646;2022-08-19T07:23:10;16.90;;;11.67;;
8159;SDS011;27404;52.398;9.646;2022-08-19T07:25:37;13.97;;;9.83;;
8159;SDS011;27404;52.398;9.646;2022-08-19T07:28:03;14.00;;;9.37;;
8159;SDS011;27404;52.398;9.646;2022-08-19T07:30:29;12.43;;;9.43;;
8159;SDS011;27404;52.398;9.646;2022-08-19T07:32:55;13.30;;;9.40;;
8159;SDS011;27404;52.398;9.646;2022-08-19T07:35:21;13.17;;;9.17;;
8159;SDS011;27404;52.398;9.646;2022-08-19T07:37:48;11.93;;;8.37;;
8159;SDS011;27404;52.398;9.646;2022-08-19T07:40:14;13.63;;;7.93;;
8159;SDS011;27404;52.398;9.646;2022-08-19T07:42:39;15.03;;;9.33;;
8159;SDS011;27404;52.398;9.646;2022-08-19T07:45:05;11.80;;;9.03;;
8159;SDS011;27404;52.398;9.646;2022-08-19T07:47:32;17.30;;;10.80;;
8159;SDS011;27404;52.398;9.646;2022-08-19T07:49:58;14.40;;;9.90;;
8159;SDS011;27404;52.398;9.646;2022-08-19T07:52:23;19.20;;;12.33;;
8159;SDS011;27404;52.398;9.646;2022-08-19T07:54:49;19.00;;;11.20;;
8159;SDS011;27404;52.398;9.646;2022-08-19T07:57:15;16.00;;;11.07;;
8159;SDS011;27404;52.398;9.646;2022-08-19T07:59:41;13.50;;;9.50;;
8159;SDS011;27404;52.398;9.646;2022-08-19T08:02:07;19.23;;;12.27;;
8159;SDS011;27404;52.398;9.646;2022-08-19T08:04:34;14.80;;;10.20;;
8159;SDS011;27404;52.398;9.646;2022-08-19T08:07:18;11.83;;;9.53;;
8159;SDS011;27404;52.398;9.646;2022-08-19T08:10:03;14.13;;;8.93;;
8159;SDS011;27404;52.398;9.646;2022-08-19T08:12:32;12.53;;;9.47;;
8159;SDS011;27404;52.398;9.646;2022-08-19T08:15:03;11.47;;;8.10;;
8159;SDS011;27404;52.398;9.646;2022-08-19T08:17:32;11.27;;;8.07;;
8159;SDS011;27404;52.398;9.646;2022-08-19T08:19:58;17.53;;;9.17;;
8159;SDS011;27404;52.398;9.646;2022-08-19T08:22:25;11.53;;;8.67;;
8159;SDS011;27404;52.398;9.646;2022-08-19T08:25:10;12.50;;;8.50;;
8159;SDS011;27404;52.398;9.646;2022-08-19T08:27:42;9.70;;;7.80;;
8159;SDS011;27404;52.398;9.646;2022-08-19T08:30:12;10.13;;;8.00;;
8159;SDS011;27404;52.398;9.646;2022-08-19T08:32:48;12.33;;;8.07;;
8159;SDS011;27404;52.398;9.646;2022-08-19T08:35:15;9.80;;;7.97;;
8159;SDS011;27404;52.398;9.646;2022-08-19T08:37:43;11.25;;;7.93;;
8159;SDS011;27404;52.398;9.646;2022-08-19T08:42:55;11.73;;;7.90;;
8159;SDS011;27404;52.398;9.646;2022-08-19T08:45:27;10.63;;;7.75;;
8159;SDS011;27404;52.398;9.646;2022-08-19T08:47:54;9.75;;;7.70;;
8159;SDS011;27404;52.398;9.646;2022-08-19T08:50:39;9.30;;;7.07;;
8159;SDS011;27404;52.398;9.646;2022-08-19T08:53:08;8.95;;;5.25;;
8159;SDS011;27404;52.398;9.646;2022-08-19T08:55:38;9.95;;;6.75;;
8159;SDS011;27404;52.398;9.646;2022-08-19T08:58:08;10.65;;;6.18;;
8159;SDS011;27404;52.398;9.646;2022-08-19T09:00:45;7.68;;;6.22;;
8159;SDS011;27404;52.398;9.646;2022-08-19T09:03:22;7.45;;;6.22;;
8159;SDS011;27404;52.398;9.646;2022-08-19T09:14:08;6.85;;;4.88;;
8159;SDS011;27404;52.398;9.646;2022-08-19T09:16:44;6.53;;;4.68;;
8159;SDS011;27404;52.398;9.646;2022-08-19T09:19:09;6.40;;;4.35;;
8159;SDS011;27404;52.398;9.646;2022-08-19T09:21:35;6.22;;;4.78;;
8159;SDS011;27404;52.398;9.646;2022-08-19T09:24:02;7.78;;;5.68;;
8159;SDS011;27404;52.398;9.646;2022-08-19T09:26:30;7.20;;;5.45;;
8159;SDS011;27404;52.398;9.646;2022-08-19T09:28:57;7.07;;;4.75;;
8159;SDS011;27404;52.398;9.646;2022-08-19T09:31:25;6.05;;;4.30;;
8159;SDS011;27404;52.398;9.646;2022-08-19T09:33:53;5.93;;;3.85;;
8159;SDS011;27404;52.398;9.646;2022-08-19T09:36:21;5.50;;;3.30;;
8159;SDS011;27404;52.398;9.646;2022-08-19T09:38:48;3.53;;;2.90;;
8159;SDS011;27404;52.398;9.646;2022-08-19T09:41:16;4.30;;;3.10;;
8159;SDS011;27404;52.398;9.646;2022-08-19T09:43:45;5.18;;;2.90;;
8159;SDS011;27404;52.398;9.646;2022-08-19T09:46:11;3.95;;;3.45;;
8159;SDS011;27404;52.398;9.646;2022-08-19T09:48:37;7.22;;;3.42;;
8159;SDS011;27404;52.398;9.646;2022-08-19T09:51:10;6.47;;;3.33;;
8159;SDS011;27404;52.398;9.646;2022-08-19T09:53:40;4.55;;;3.10;;
8159;SDS011;27404;52.398;9.646;2022-08-19T09:56:05;3.90;;;2.92;;
8159;SDS011;27404;52.398;9.646;2022-08-19T09:58:31;3.63;;;2.60;;
8159;SDS011;27404;52.398;9.646;2022-08-19T10:00:58;6.38;;;2.97;;
8159;SDS011;27404;52.398;9.646;2022-08-19T10:03:26;5.82;;;3.40;;
8159;SDS011;27404;52.398;9.646;2022-08-19T10:05:53;4.35;;;3.05;;
8159;SDS011;27404;52.398;9.646;2022-08-19T10:08:23;3.50;;;2.70;;
8159;SDS011;27404;52.398;9.646;2022-08-19T10:10:53;3.60;;;2.45;;
8159;SDS011;27404;52.398;9.646;2022-08-19T10:13:20;3.45;;;2.53;;
8159;SDS011;27404;52.398;9.646;2022-08-19T10:15:48;3.90;;;2.42;;
8159;SDS011;27404;52.398;9.646;2022-08-19T10:18:16;3.45;;;2.05;;
8159;SDS011;27404;52.398;9.646;2022-08-19T10:20:43;5.72;;;2.40;;
8159;SDS011;27404;52.398;9.646;2022-08-19T10:23:10;4.95;;;2.40;;
8159;SDS011;27404;52.398;9.646;2022-08-19T10:25:36;3.80;;;2.42;;
8159;SDS011;27404;52.398;9.646;2022-08-19T10:28:02;6.28;;;2.50;;
8159;SDS011;27404;52.398;9.646;2022-08-19T10:30:29;4.22;;;2.03;;
8159;SDS011;27404;52.398;9.646;2022-08-19T10:32:54;3.63;;;2.30;;
8159;SDS011;27404;52.398;9.646;2022-08-19T10:35:20;3.67;;;2.20;;
8159;SDS011;27404;52.398;9.646;2022-08-19T10:37:45;2.88;;;2.08;;
8159;SDS011;27404;52.398;9.646;2022-08-19T10:40:11;3.33;;;2.30;;
8159;SDS011;27404;52.398;9.646;2022-08-19T10:42:36;5.93;;;2.15;;
8159;SDS011;27404;52.398;9.646;2022-08-19T10:45:03;3.42;;;2.00;;
8159;SDS011;27404;52.398;9.646;2022-08-19T10:47:31;3.10;;;1.92;;
8159;SDS011;27404;52.398;9.646;2022-08-19T10:49:57;3.20;;;2.10;;
8159;SDS011;27404;52.398;9.646;2022-08-19T10:52:42;3.35;;;2.30;;
8159;SDS011;27404;52.398;9.646;2022-08-19T10:55:09;2.88;;;2.20;;
8159;SDS011;27404;52.398;9.646;2022-08-19T10:57:54;2.80;;;1.92;;
8159;SDS011;27404;52.398;9.646;2022-08-19T11:00:20;3.42;;;1.95;;
8159;SDS011;27404;52.398;9.646;2022-08-19T11:02:48;2.67;;;2.03;;
8159;SDS011;27404;52.398;9.646;2022-08-19T11:05:14;3.47;;;2.53;;
8159;SDS011;27404;52.398;9.646;2022-08-19T11:07:40;2.75;;;1.77;;
8159;SDS011;27404;52.398;9.646;2022-08-19T11:10:07;2.75;;;1.88;;
8159;SDS011;27404;52.398;9.646;2022-08-19T11:12:37;4.90;;;2.45;;
8159;SDS011;27404;52.398;9.646;2022-08-19T11:15:06;2.67;;;1.92;;
8159;SDS011;27404;52.398;9.646;2022-08-19T11:17:34;3.30;;;2.00;;
8159;SDS011;27404;52.398;9.646;2022-08-19T11:20:01;4.35;;;1.88;;
8159;SDS011;27404;52.398;9.646;2022-08-19T11:22:29;3.13;;;2.03;;
8159;SDS011;27404;52.398;9.646;2022-08-19T11:24:55;4.63;;;2.03;;
8159;SDS011;27404;52.398;9.646;2022-08-19T11:27:20;3.15;;;2.03;;
8159;SDS011;27404;52.398;9.646;2022-08-19T11:29:46;6.43;;;2.47;;
8159;SDS011;27404;52.398;9.646;2022-08-19T11:32:12;2.65;;;1.70;;
8159;SDS011;27404;52.398;9.646;2022-08-19T11:34:38;3.85;;;2.30;;
8159;SDS011;27404;52.398;9.646;2022-08-19T11:37:04;3.00;;;1.73;;
8159;SDS011;27404;52.398;9.646;2022-08-19T11:39:31;2.88;;;1.95;;
8159;SDS011;27404;52.398;9.646;2022-08-19T11:41:58;3.63;;;1.88;;
8159;SDS011;27404;52.398;9.646;2022-08-19T11:44:24;3.47;;;2.05;;
8159;SDS011;27404;52.398;9.646;2022-08-19T11:46:51;4.90;;;1.80;;
8159;SDS011;27404;52.398;9.646;2022-08-19T11:49:18;5.07;;;1.83;;
8159;SDS011;27404;52.398;9.646;2022-08-19T11:51:46;2.83;;;2.00;;
8159;SDS011;27404;52.398;9.646;2022-08-19T11:54:13;5.50;;;2.00;;
8159;SDS011;27404;52.398;9.646;2022-08-19T11:56:41;5.00;;;1.75;;
8159;SDS011;27404;52.398;9.646;2022-08-19T11:59:07;5.18;;;2.15;;
8159;SDS011;27404;52.398;9.646;2022-08-19T12:01:32;4.07;;;1.85;;
8159;SDS011;27404;52.398;9.646;2022-08-19T12:03:59;2.33;;;2.00;;
8159;SDS011;27404;52.398;9.646;2022-08-19T12:06:27;5.72;;;2.22;;
8159;SDS011;27404;52.398;9.646;2022-08-19T12:08:55;5.40;;;2.15;;
8159;SDS011;27404;52.398;9.646;2022-08-19T12:11:22;2.03;;;1.63;;
8159;SDS011;27404;52.398;9.646;2022-08-19T12:13:48;3.15;;;1.60;;
8159;SDS011;27404;52.398;9.646;2022-08-19T12:16:17;2.30;;;1.50;;
8159;SDS011;27404;52.398;9.646;2022-08-19T12:18:48;4.13;;;1.80;;
8159;SDS011;27404;52.398;9.646;2022-08-19T12:21:18;2.45;;;1.67;;
8159;SDS011;27404;52.398;9.646;2022-08-19T12:23:50;2.35;;;1.77;;
8159;SDS011;27404;52.398;9.646;2022-08-19T12:26:17;2.00;;;1.67;;
8159;SDS011;27404;52.398;9.646;2022-08-19T12:28:43;3.58;;;1.40;;
8159;SDS011;27404;52.398;9.646;2022-08-19T12:31:09;2.92;;;1.70;;
8159;SDS011;27404;52.398;9.646;2022-08-19T12:33:37;3.67;;;1.60;;
8159;SDS011;27404;52.398;9.646;2022-08-19T12:36:06;2.08;;;1.55;;
8159;SDS011;27404;52.398;9.646;2022-08-19T12:38:35;2.92;;;1.70;;
8159;SDS011;27404;52.398;9.646;2022-08-19T12:41:01;3.60;;;1.50;;
8159;SDS011;27404;52.398;9.646;2022-08-19T12:43:31;2.22;;;1.25;;
8159;SDS011;27404;52.398;9.646;2022-08-19T12:45:59;3.15;;;1.58;;
8159;SDS011;27404;52.398;9.646;2022-08-19T12:48:25;2.28;;;1.52;;
8159;SDS011;27404;52.398;9.646;2022-08-19T12:50:50;2.78;;;1.40;;
8159;SDS011;27404;52.398;9.646;2022-08-19T12:53:15;3.78;;;1.50;;
8159;SDS011;27404;52.398;9.646;2022-08-19T12:55:41;2.42;;;1.77;;
8159;SDS011;27404;52.398;9.646;2022-08-19T12:58:08;4.85;;;1.70;;
8159;SDS011;27404;52.398;9.646;2022-08-19T13:00:34;3.75;;;1.92;;
8159;SDS011;27404;52.398;9.646;2022-08-19T13:03:00;2.45;;;1.73;;
8159;SDS011;27404;52.398;9.646;2022-08-19T13:05:27;5.03;;;2.05;;
8159;SDS011;27404;52.398;9.646;2022-08-19T13:07:55;3.22;;;1.33;;
8159;SDS011;27404;52.398;9.646;2022-08-19T13:10:22;1.90;;;1.30;;
8159;SDS011;27404;52.398;9.646;2022-08-19T13:12:50;2.05;;;1.42;;
8159;SDS011;27404;52.398;9.646;2022-08-19T13:15:17;1.75;;;1.50;;
8159;SDS011;27404;52.398;9.646;2022-08-19T13:17:47;4.20;;;1.40;;
8159;SDS011;27404;52.398;9.646;2022-08-19T13:20:15;3.15;;;1.60;;
8159;SDS011;27404;52.398;9.646;2022-08-19T13:22:44;3.38;;;1.65;;
8159;SDS011;27404;52.398;9.646;2022-08-19T13:25:10;3.30;;;1.45;;
8159;SDS011;27404;52.398;9.646;2022-08-19T13:27:37;4.40;;;1.38;;
8159;SDS011;27404;52.398;9.646;2022-08-19T13:30:04;2.83;;;1.70;;
8159;SDS011;27404;52.398;9.646;2022-08-19T13:32:49;3.28;;;1.23;;
8159;SDS011;27404;52.398;9.646;2022-08-19T13:35:33;1.63;;;1.17;;
8159;SDS011;27404;52.398;9.646;2022-08-19T13:37:59;2.55;;;1.35;;
8159;SDS011;27404;52.398;9.646;2022-08-19T13:40:28;2.30;;;1.70;;
8159;SDS011;27404;52.398;9.646;2022-08-19T13:42:59;2.95;;;1.20;;
8159;SDS011;27404;52.398;9.646;2022-08-19T13:45:26;2.28;;;1.42;;
8159;SDS011;27404;52.398;9.646;2022-08-19T13:47:54;2.78;;;1.33;;
8159;SDS011;27404;52.398;9.646;2022-08-19T13:50:22;3.13;;;1.30;;
8159;SDS011;27404;52.398;9.646;2022-08-19T13:52:53;3.83;;;1.52;;
8159;SDS011;27404;52.398;9.646;2022-08-19T13:55:19;2.67;;;1.27;;
8159;SDS011;27404;52.398;9.646;2022-08-19T13:57:45;4.20;;;1.52;;
8159;SDS011;27404;52.398;9.646;2022-08-19T14:00:12;3.63;;;1.45;;
8159;SDS011;27404;52.398;9.646;2022-08-19T14:02:42;1.95;;;1.20;;
8159;SDS011;27404;52.398;9.646;2022-08-19T14:05:10;3.10;;;1.55;;
8159;SDS011;27404;52.398;9.646;2022-08-19T14:10:26;5.47;;;1.50;;
8159;SDS011;27404;52.398;9.646;2022-08-19T14:12:56;1.95;;;1.40;;
8159;SDS011;27404;52.398;9.646;2022-08-19T14:15:23;1.63;;;1.20;;
8159;SDS011;27404;52.398;9.646;2022-08-19T14:17:50;4.20;;;1.55;;
8159;SDS011;27404;52.398;9.646;2022-08-19T14:20:16;4.53;;;1.42;;
8159;SDS011;27404;52.398;9.646;2022-08-19T14:22:42;1.92;;;1.42;;
8159;SDS011;27404;52.398;9.646;2022-08-19T14:25:10;2.33;;;1.30;;
8159;SDS011;27404;52.398;9.646;2022-08-19T14:27:40;4.10;;;1.60;;
8159;SDS011;27404;52.398;9.646;2022-08-19T14:30:07;3.38;;;1.50;;
8159;SDS011;27404;52.398;9.646;2022-08-19T14:32:35;3.05;;;1.80;;
8159;SDS011;27404;52.398;9.646;2022-08-19T14:35:01;3.47;;;1.67;;
8159;SDS011;27404;52.398;9.646;2022-08-19T14:37:27;2.83;;;1.80;;
8159;SDS011;27404;52.398;9.646;2022-08-19T14:39:53;5.90;;;1.63;;
8159;SDS011;27404;52.398;9.646;2022-08-19T14:42:18;4.60;;;1.83;;
8159;SDS011;27404;52.398;9.646;2022-08-19T14:44:44;4.03;;;1.38;;
8159;SDS011;27404;52.398;9.646;2022-08-19T14:47:09;2.25;;;1.13;;
8159;SDS011;27404;52.398;9.646;2022-08-19T14:49:35;2.28;;;1.25;;
8159;SDS011;27404;52.398;9.646;2022-08-19T14:52:01;3.60;;;1.40;;
8159;SDS011;27404;52.398;9.646;2022-08-19T14:54:28;2.25;;;1.40;;
8159;SDS011;27404;52.398;9.646;2022-08-19T14:56:54;2.72;;;1.20;;
8159;SDS011;27404;52.398;9.646;2022-08-19T14:59:19;2.08;;;1.35;;
8159;SDS011;27404;52.398;9.646;2022-08-19T15:01:45;3.00;;;1.42;;
8159;SDS011;27404;52.398;9.646;2022-08-19T15:04:10;3.97;;;1.70;;
8159;SDS011;27404;52.398;9.646;2022-08-19T15:06:36;2.85;;;1.30;;
8159;SDS011;27404;52.398;9.646;2022-08-19T15:09:01;2.25;;;1.48;;
8159;SDS011;27404;52.398;9.646;2022-08-19T15:11:28;4.53;;;1.50;;